Terminal Aerodrome Forecast
Issued by NWS Grand Forks, ND

Home | Current Version | Previous Version | Graphics & Text | Print | Product List | Glossary On
Versions: 1 2 3 4 5 6 7 8 9 10 11 12
000
FTUS43 KFGF 171127
TAFGFK
TAF
KGFK 171127Z 1712/1812 10005KT P6SM FEW250
     FM171400 10010KT P6SM SCT120
     FM180100 06005KT P6SM BKN200=

USA.gov is the U.S. government's official web portal to all federal, state and local government web resources and services.